Time;durP1;ratioP1;P1;durP2;ratioP2;P2;SDS_P1;SDS_P2;PMS_P1;PMS_P2;Temp;Humidity;BMP_temperature;BMP_pressure;BME280_temperature;BME280_humidity;BME280_pressure;Samples;Min_cycle;Max_cycle;Signal;HPM_P1;HPM_P2
2021/06/06 00:01:54;;;;;;;1.98;1.45;;;;;;;12.28;77.91;93394.13;4992298;28;19922;-81
2021/06/06 00:04:23;;;;;;;2.35;1.38;;;;;;;12.21;78.84;93385.69;4992762;28;20198;-82
2021/06/06 00:06:50;;;;;;;2.13;1.58;;;;;;;12.18;79.73;93379.19;4991749;28;20509;-81
2021/06/06 00:09:19;;;;;;;2.58;1.70;;;;;;;12.16;80.39;93394.84;4990102;28;20039;-81
2021/06/06 00:11:47;;;;;;;3.08;2.03;;;;;;;12.15;80.84;93389.91;4992437;28;20046;-82
2021/06/06 00:14:16;;;;;;;5.70;3.05;;;;;;;12.13;82.31;93382.41;4992718;28;20104;-82
2021/06/06 00:16:46;;;;;;;2.33;1.88;;;;;;;12.15;82.75;93385.56;4992982;28;20441;-82
2021/06/06 00:19:14;;;;;;;3.25;1.90;;;;;;;12.14;83.47;93386.53;4992878;28;20046;-83
2021/06/06 00:21:42;;;;;;;2.90;1.83;;;;;;;12.08;84.16;93384.06;4993086;28;20046;-82
2021/06/06 00:24:17;;;;;;;3.17;2.05;;;;;;;11.99;84.32;93386.09;4993069;28;20147;-82
2021/06/06 00:26:43;;;;;;;3.25;2.08;;;;;;;11.95;85.25;93390.84;4992717;28;20047;-81
2021/06/06 00:29:09;;;;;;;;;;;;;;;11.91;85.69;93387.16;4993439;28;20053;-82
2021/06/06 00:31:36;;;;;;;3.40;2.03;;;;;;;11.86;86.78;93381.84;4993072;28;19928;-82
2021/06/06 00:34:05;;;;;;;2.45;1.75;;;;;;;11.77;86.90;93369.25;4992849;28;20042;-81
2021/06/06 00:36:32;;;;;;;4.75;2.20;;;;;;;11.82;87.81;93378.94;4992742;28;20434;-82
2021/06/06 00:38:58;;;;;;;4.28;3.13;;;;;;;11.79;87.82;93378.56;4992688;28;20039;-82
2021/06/06 00:41:27;;;;;;;4.57;2.55;;;;;;;11.82;87.52;93378.13;4992512;28;20052;-82
2021/06/06 00:43:55;;;;;;;2.95;2.00;;;;;;;11.85;86.59;93375.91;4992682;28;20050;-82
2021/06/06 00:46:25;;;;;;;3.95;2.60;;;;;;;11.88;86.87;93378.06;4992805;28;20101;-82
2021/06/06 00:48:51;;;;;;;4.55;2.33;;;;;;;11.89;86.81;93381.41;4992357;28;20062;-82
2021/06/06 00:51:21;;;;;;;2.85;2.00;;;;;;;11.88;87.42;93379.84;4992270;28;20518;-81
2021/06/06 00:53:51;;;;;;;2.50;2.08;;;;;;;11.86;86.20;93381.84;4993005;28;20402;-82
2021/06/06 00:56:21;;;;;;;2.50;1.85;;;;;;;11.84;85.72;93387.22;4992370;28;20058;-82
2021/06/06 00:58:49;;;;;;;3.10;1.90;;;;;;;11.77;85.63;93384.69;4992087;28;20057;-81
2021/06/06 01:01:17;;;;;;;3.20;2.03;;;;;;;11.66;85.24;93384.63;4991742;28;20049;-81
2021/06/06 01:03:45;;;;;;;2.83;1.67;;;;;;;11.56;84.56;93382.50;4992114;28;20050;-80
2021/06/06 01:06:14;;;;;;;2.78;1.73;;;;;;;11.46;85.29;93390.72;4992242;28;20438;-80
2021/06/06 01:08:43;;;;;;;3.50;1.92;;;;;;;11.40;85.08;93378.69;4991859;28;20038;-81
2021/06/06 01:11:15;;;;;;;2.85;1.83;;;;;;;11.40;85.47;93383.84;4992267;28;20094;-80
2021/06/06 01:13:44;;;;;;;2.08;1.60;;;;;;;11.39;86.46;93387.41;4992008;28;20043;-80
2021/06/06 01:16:17;;;;;;;1.88;1.30;;;;;;;11.35;86.47;93385.25;4992073;28;20050;-80
2021/06/06 01:18:48;;;;;;;2.28;1.80;;;;;;;11.29;86.53;93380.16;4991829;28;20494;-80
2021/06/06 01:21:25;;;;;;;2.88;1.73;;;;;;;11.25;86.92;93374.63;4992085;28;20379;-80
2021/06/06 01:24:23;;;;;;;2.13;1.50;;;;;;;11.23;88.58;93374.88;4991723;28;20053;-80
2021/06/06 01:26:55;;;;;;;2.58;1.63;;;;;;;11.23;87.59;93368.94;4991970;28;20046;-80
2021/06/06 01:29:43;;;;;;;3.70;2.17;;;;;;;11.23;87.14;93374.88;4991445;28;20608;-80
2021/06/06 01:32:15;;;;;;;2.30;1.83;;;;;;;11.22;87.49;93375.84;4991340;28;20046;-80
2021/06/06 01:34:44;;;;;;;3.33;2.03;;;;;;;11.12;86.69;93369.59;4991346;28;20046;-80
2021/06/06 01:37:14;;;;;;;3.00;1.85;;;;;;;11.12;87.27;93370.41;4991158;28;20046;-80
2021/06/06 01:39:46;;;;;;;2.97;2.08;;;;;;;11.06;87.25;93359.16;4991599;28;20038;-79
2021/06/06 01:42:15;;;;;;;3.30;1.95;;;;;;;11.13;86.78;93364.25;4991667;28;20093;-81
2021/06/06 01:44:46;;;;;;;5.05;2.08;;;;;;;11.05;87.56;93360.16;4991364;28;20111;-81
2021/06/06 01:47:17;;;;;;;4.45;2.03;;;;;;;11.00;87.84;93343.75;4991458;28;20078;-81
2021/06/06 01:49:46;;;;;;;2.30;1.58;;;;;;;10.85;88.00;93315.81;4991154;28;20137;-81
2021/06/06 01:52:15;;;;;;;3.13;1.92;;;;;;;11.08;88.79;93348.66;4991328;28;20042;-81
2021/06/06 01:54:43;;;;;;;3.00;1.83;;;;;;;10.98;89.33;93338.06;4991214;28;20042;-81
2021/06/06 01:57:19;;;;;;;3.78;2.30;;;;;;;11.05;88.93;93349.06;4990850;28;20046;-81
2021/06/06 01:59:49;;;;;;;3.25;1.90;;;;;;;10.95;89.29;93334.91;4991307;28;20042;-81
2021/06/06 02:02:16;;;;;;;3.35;1.67;;;;;;;10.92;89.40;93330.19;4991177;28;20754;-81
2021/06/06 02:04:43;;;;;;;5.60;1.73;;;;;;;11.01;89.23;93341.00;4991207;28;20046;-82
2021/06/06 02:07:12;;;;;;;3.45;2.03;;;;;;;10.82;88.86;93314.44;4991088;28;20046;-81
2021/06/06 02:09:45;;;;;;;5.10;1.90;;;;;;;10.62;88.87;93286.31;4990606;28;20525;-81
2021/06/06 02:12:12;;;;;;;3.42;1.88;;;;;;;10.80;89.70;93319.78;4989982;28;20042;-81
2021/06/06 02:14:41;;;;;;;2.05;1.50;;;;;;;10.86;89.87;93325.06;4990807;28;20051;-81
2021/06/06 02:17:12;;;;;;;3.88;2.30;;;;;;;10.88;90.73;93330.81;4990722;28;20062;-81
2021/06/06 02:19:42;;;;;;;3.00;2.30;;;;;;;10.87;90.23;93327.44;4990882;28;20537;-81
2021/06/06 02:22:12;;;;;;;3.88;2.22;;;;;;;10.90;90.45;93324.47;4990634;28;20154;-81
2021/06/06 02:24:39;;;;;;;3.35;2.45;;;;;;;10.84;91.75;93322.75;4990763;28;20049;-81
2021/06/06 02:27:14;;;;;;;4.35;2.40;;;;;;;10.83;92.23;93324.50;4990756;28;20051;-81
2021/06/06 02:29:50;;;;;;;7.72;2.40;;;;;;;10.82;92.83;93322.94;4990327;28;20049;-81
2021/06/06 02:32:23;;;;;;;4.63;2.38;;;;;;;10.80;93.20;93327.47;4990478;28;20050;-81
2021/06/06 02:34:58;;;;;;;3.10;1.77;;;;;;;10.68;95.08;93316.31;4990370;28;20116;-81
2021/06/06 02:37:27;;;;;;;2.50;2.00;;;;;;;10.69;95.00;93318.66;4990217;28;20137;-82
2021/06/06 02:39:59;;;;;;;6.75;2.15;;;;;;;10.54;95.69;93305.31;4990546;28;20295;-82
2021/06/06 02:42:30;;;;;;;3.78;2.28;;;;;;;10.64;95.23;93315.94;4990567;28;20046;-82
2021/06/06 02:45:00;;;;;;;3.85;2.08;;;;;;;10.66;95.56;93315.72;4990475;28;20042;-81
2021/06/06 02:47:30;;;;;;;3.63;2.20;;;;;;;10.46;97.47;93297.88;4990163;28;20077;-81
2021/06/06 02:49:59;;;;;;;3.58;2.25;;;;;;;10.54;97.30;93307.88;4990510;28;20046;-80
2021/06/06 02:52:38;;;;;;;3.55;2.50;;;;;;;10.48;97.69;93298.44;4990467;28;20050;-81
2021/06/06 02:55:10;;;;;;;5.07;2.65;;;;;;;10.51;98.44;93305.75;4990090;28;20619;-82
2021/06/06 02:57:40;;;;;;;5.13;2.88;;;;;;;10.54;99.25;93308.69;4989915;28;20133;-82
2021/06/06 03:00:12;;;;;;;2.97;2.35;;;;;;;10.54;98.34;93300.19;4990353;28;20045;-82
2021/06/06 03:02:43;;;;;;;6.63;2.85;;;;;;;10.67;96.97;93309.59;4989947;28;20043;-82
2021/06/06 03:05:17;;;;;;;4.60;2.90;;;;;;;10.84;97.51;93315.03;4989854;28;20046;-82
2021/06/06 03:07:47;;;;;;;3.55;2.20;;;;;;;10.85;96.90;93321.75;4989908;28;20042;-83
2021/06/06 03:10:15;;;;;;;3.70;2.83;;;;;;;10.77;96.80;93311.69;4990246;28;20117;-82
2021/06/06 03:12:45;;;;;;;3.92;2.50;;;;;;;10.83;97.61;93313.44;4989571;28;20058;-82
2021/06/06 03:15:13;;;;;;;5.00;3.08;;;;;;;10.82;97.51;93322.16;4990215;28;20042;-82
2021/06/06 03:17:42;;;;;;;3.10;2.28;;;;;;;10.80;97.63;93306.94;4989835;28;20050;-81
2021/06/06 03:20:13;;;;;;;2.80;2.00;;;;;;;10.87;96.39;93324.88;4990106;28;20411;-80
2021/06/06 03:22:42;;;;;;;2.47;2.13;;;;;;;10.40;99.11;93319.97;4989651;28;20054;-81
2021/06/06 03:25:13;;;;;;;3.30;2.33;;;;;;;10.42;100.00;93326.50;4993396;28;20203;-81
2021/06/06 03:27:42;;;;;;;3.28;2.40;;;;;;;10.45;99.99;93325.31;4993632;28;20046;-81
2021/06/06 03:30:16;;;;;;;4.47;2.40;;;;;;;10.48;99.95;93322.34;4994002;28;20061;-82
2021/06/06 03:32:47;;;;;;;6.32;2.65;;;;;;;10.23;100.00;93287.09;4993759;28;20038;-82
2021/06/06 03:35:14;;;;;;;16.23;3.95;;;;;;;10.42;100.00;93334.19;4993861;28;20097;-81
2021/06/06 03:37:40;;;;;;;3.88;2.55;;;;;;;10.50;100.00;93324.69;4993353;28;20051;-81
2021/06/06 03:40:09;;;;;;;6.05;3.95;;;;;;;10.58;100.00;93331.38;4993550;28;20122;-81
2021/06/06 03:42:35;;;;;;;3.90;2.70;;;;;;;10.71;99.66;93325.38;4993445;28;20143;-81
2021/06/06 03:45:02;;;;;;;5.00;3.15;;;;;;;10.68;98.76;93317.09;4993402;28;20042;-81
2021/06/06 03:47:29;;;;;;;4.45;3.05;;;;;;;10.92;98.75;93330.19;4993621;28;20051;-81
2021/06/06 03:49:56;;;;;;;6.07;3.30;;;;;;;10.67;100.00;93300.13;4993800;28;20073;-81
2021/06/06 03:52:22;;;;;;;;;;;;;;;10.79;99.24;93295.09;4993580;28;20038;-81
2021/06/06 03:54:48;;;;;;;3.50;2.65;;;;;;;10.95;100.00;93326.41;4993524;28;19941;-81
2021/06/06 03:57:14;;;;;;;;;;;;;;;10.90;100.00;93329.63;4993417;28;20072;-82
2021/06/06 03:59:41;;;;;;;6.70;3.45;;;;;;;10.85;100.00;93321.75;4993078;28;19917;-81
2021/06/06 04:02:07;;;;;;;;;;;;;;;10.95;100.00;93336.69;4993647;28;20038;-82
2021/06/06 04:04:34;;;;;;;7.25;4.38;;;;;;;10.98;100.00;93327.78;4993356;28;19921;-81
2021/06/06 04:07:01;;;;;;;3.58;2.78;;;;;;;11.15;100.00;93330.63;4993068;28;20057;-81
2021/06/06 04:09:27;;;;;;;7.93;5.18;;;;;;;11.18;100.00;93336.13;4993035;28;20051;-82
2021/06/06 04:11:53;;;;;;;;;;;;;;;11.15;100.00;93335.78;4993085;28;20061;-82
2021/06/06 04:14:20;;;;;;;6.85;3.42;;;;;;;11.30;99.43;93335.44;4993024;28;19917;-82
2021/06/06 04:16:46;;;;;;;10.55;3.70;;;;;;;11.32;100.00;93331.66;4992668;28;20071;-81
2021/06/06 04:19:12;;;;;;;;;;;;;;;11.33;99.39;93333.25;4993089;28;20097;-81
2021/06/06 04:21:40;;;;;;;10.55;3.92;;;;;;;11.42;99.79;93335.53;4988625;28;19921;-81
2021/06/06 04:24:07;;;;;;;22.42;5.68;;;;;;;11.38;100.00;93342.88;4993063;28;20043;-81
2021/06/06 04:26:33;;;;;;;24.45;5.30;;;;;;;11.44;99.26;93328.41;4992611;28;20515;-81
2021/06/06 04:28:59;;;;;;;12.68;5.10;;;;;;;11.56;99.78;93347.28;4992428;28;20038;-81
2021/06/06 04:31:26;;;;;;;;;;;;;;;11.74;98.77;93343.16;4993032;28;20125;-81
2021/06/06 04:33:53;;;;;;;9.30;4.85;;;;;;;11.77;98.74;93340.94;4992880;28;19918;-81
2021/06/06 04:36:19;;;;;;;;;;;;;;;11.76;98.73;93341.19;4991632;28;20047;-80
2021/06/06 04:38:47;;;;;;;17.90;4.93;;;;;;;11.92;97.95;93339.81;4991994;28;19918;-80
2021/06/06 04:41:15;;;;;;;8.35;4.65;;;;;;;12.06;97.37;93348.22;4992388;28;20046;-80
2021/06/06 04:43:42;;;;;;;10.82;4.60;;;;;;;12.29;95.85;93345.00;4992258;28;20101;-82
2021/06/06 04:46:09;;;;;;;15.45;7.15;;;;;;;12.47;95.31;93352.91;4992387;28;20097;-81
2021/06/06 04:48:38;;;;;;;13.25;4.60;;;;;;;12.54;94.98;93341.50;5012200;28;20389;-81
2021/06/06 04:51:07;;;;;;;11.82;5.45;;;;;;;12.69;93.83;93353.22;5012026;28;20053;-82
2021/06/06 04:53:33;;;;;;;11.05;5.38;;;;;;;12.69;93.93;93348.84;5010371;28;20072;-82
2021/06/06 04:56:02;;;;;;;14.68;5.55;;;;;;;12.92;93.91;93347.34;4992056;28;20053;-82
2021/06/06 04:58:30;;;;;;;10.32;5.85;;;;;;;12.78;93.06;93305.50;4992089;28;20062;-81
2021/06/06 05:00:57;;;;;;;13.52;6.78;;;;;;;13.17;92.28;93332.69;4992444;28;20050;-82
2021/06/06 05:03:23;;;;;;;25.90;5.82;;;;;;;13.38;92.59;93344.25;4992416;28;20034;-82
2021/06/06 05:05:50;;;;;;;14.95;6.20;;;;;;;13.59;91.94;93332.66;4992001;28;20057;-82
2021/06/06 05:08:18;;;;;;;13.70;6.18;;;;;;;13.69;91.08;93320.94;4992043;28;20058;-82
2021/06/06 05:10:46;;;;;;;19.90;6.70;;;;;;;13.78;90.45;93340.25;4991870;28;20487;-81
2021/06/06 05:13:15;;;;;;;19.95;5.90;;;;;;;13.91;90.31;93336.66;4992164;28;20047;-81
2021/06/06 05:15:41;;;;;;;14.02;5.45;;;;;;;14.10;89.70;93336.50;4990827;28;20050;-82
2021/06/06 05:18:08;;;;;;;;;;;;;;;14.26;89.41;93330.63;4992587;28;20061;-82
2021/06/06 05:20:40;;;;;;;11.52;4.80;;;;;;;14.43;88.17;93328.09;4991687;28;20366;-81
2021/06/06 05:23:07;;;;;;;10.27;4.88;;;;;;;14.67;89.36;93328.00;4991754;28;20042;-81
2021/06/06 05:25:35;;;;;;;14.55;4.95;;;;;;;14.71;89.18;93305.06;4991649;28;20053;-81
2021/06/06 05:28:01;;;;;;;12.45;6.20;;;;;;;15.09;87.64;93329.50;4987084;28;20054;-81
2021/06/06 05:30:30;;;;;;;;;;;;;;;15.37;86.26;93327.09;4991211;28;20042;-81
2021/06/06 05:32:57;;;;;;;7.47;3.53;;;;;;;15.46;86.54;93330.84;4991475;28;19965;-81
2021/06/06 05:35:25;;;;;;;10.77;5.53;;;;;;;15.61;86.47;93329.50;4991442;28;20057;-81
2021/06/06 05:37:52;;;;;;;8.82;4.47;;;;;;;15.90;85.87;93330.16;4991695;28;20046;-81
2021/06/06 05:40:20;;;;;;;14.57;6.20;;;;;;;16.11;85.39;93321.88;4991284;28;20545;-81
2021/06/06 05:42:46;;;;;;;7.43;4.05;;;;;;;16.48;84.91;93334.19;4991428;28;20046;-82
2021/06/06 05:45:13;;;;;;;;;;;;;;;16.76;83.34;93329.81;4991895;28;20047;-81
2021/06/06 05:47:41;;;;;;;4.57;3.17;;;;;;;16.96;81.44;93328.44;4990561;28;20265;-80
2021/06/06 05:50:17;;;;;;;4.70;3.00;;;;;;;17.13;80.76;93323.16;4991356;28;20996;-80
2021/06/06 05:52:43;;;;;;;;;;;;;;;17.43;80.68;93329.63;4991590;28;20053;-80
2021/06/06 05:55:10;;;;;;;4.43;3.00;;;;;;;17.67;78.48;93323.28;4991504;28;19918;-80
2021/06/06 05:57:37;;;;;;;3.30;2.55;;;;;;;17.86;77.54;93321.81;4991594;28;20081;-80
2021/06/06 06:00:06;;;;;;;3.88;2.58;;;;;;;18.15;76.12;93318.84;4991424;28;20046;-81
2021/06/06 06:02:32;;;;;;;2.30;1.77;;;;;;;18.39;74.81;93331.44;4990965;28;20042;-80
2021/06/06 06:05:00;;;;;;;4.40;2.70;;;;;;;18.63;73.47;93330.97;4990756;28;20042;-80
2021/06/06 06:07:26;;;;;;;4.68;3.03;;;;;;;18.94;71.97;93325.03;4991147;28;20047;-80
2021/06/06 06:09:53;;;;;;;3.72;2.20;;;;;;;19.20;69.88;93331.06;4991224;28;20042;-80
2021/06/06 06:12:19;;;;;;;3.67;2.40;;;;;;;19.34;68.76;93322.72;4990873;28;20046;-80
2021/06/06 06:14:45;;;;;;;5.38;2.75;;;;;;;19.67;68.13;93325.81;4989397;28;20050;-81
2021/06/06 06:17:11;;;;;;;3.70;2.55;;;;;;;20.01;66.20;93332.28;4990642;28;20482;-80
2021/06/06 06:19:38;;;;;;;4.40;2.80;;;;;;;20.32;65.58;93326.19;4990795;28;20054;-81
2021/06/06 06:22:05;;;;;;;3.10;1.83;;;;;;;20.57;63.10;93335.72;4991021;28;20057;-81
2021/06/06 06:24:32;;;;;;;3.60;2.30;;;;;;;20.78;62.09;93327.78;4990917;28;20057;-81
2021/06/06 06:26:58;;;;;;;5.00;2.38;;;;;;;21.02;61.18;93332.34;4990376;28;20046;-81
2021/06/06 06:29:25;;;;;;;3.22;2.13;;;;;;;21.30;61.15;93325.59;4990657;28;20047;-81
2021/06/06 06:31:52;;;;;;;6.40;2.35;;;;;;;21.61;60.56;93327.16;4990415;28;20064;-81
2021/06/06 06:34:18;;;;;;;3.58;2.20;;;;;;;22.01;58.48;93330.47;4982576;28;20577;-81
2021/06/06 06:36:46;;;;;;;4.18;2.30;;;;;;;22.35;58.10;93328.03;4988494;28;20050;-81
2021/06/06 06:39:15;;;;;;;3.53;2.20;;;;;;;22.67;57.42;93321.34;4989711;28;20177;-81
2021/06/06 06:41:41;;;;;;;3.28;2.30;;;;;;;23.04;55.97;93326.84;4990113;28;20046;-81
2021/06/06 06:44:08;;;;;;;3.35;2.58;;;;;;;23.34;55.00;93325.63;4990338;28;20913;-81
2021/06/06 06:46:34;;;;;;;5.43;2.20;;;;;;;23.60;53.38;93337.53;4990243;28;20467;-81
2021/06/06 06:49:01;;;;;;;3.38;1.98;;;;;;;23.64;52.66;93322.78;4990000;28;20034;-81
2021/06/06 06:51:28;;;;;;;3.10;2.20;;;;;;;23.82;52.67;93317.75;4990290;28;20393;-81
2021/06/06 06:53:55;;;;;;;4.13;2.63;;;;;;;24.09;52.26;93324.91;4990080;28;20867;-81
2021/06/06 06:56:24;;;;;;;5.25;3.35;;;;;;;24.42;51.76;93316.13;4990368;28;20053;-81
2021/06/06 06:58:50;;;;;;;2.90;2.22;;;;;;;24.62;50.53;93314.16;4989691;28;20046;-81
2021/06/06 07:01:17;;;;;;;3.10;2.13;;;;;;;24.73;50.02;93309.44;4990057;28;20482;-80
2021/06/06 07:03:44;;;;;;;3.95;2.35;;;;;;;24.73;49.96;93293.69;4990302;28;20049;-81
2021/06/06 07:06:12;;;;;;;2.83;2.42;;;;;;;24.96;49.27;93284.00;4989906;28;20046;-82
2021/06/06 07:08:40;;;;;;;4.45;2.45;;;;;;;25.23;48.73;93303.38;4989774;28;20502;-81
2021/06/06 07:11:09;;;;;;;6.63;2.80;;;;;;;25.38;48.23;93296.16;4990112;28;20051;-81
2021/06/06 07:13:37;;;;;;;3.38;1.85;;;;;;;25.34;46.96;93299.41;4990215;28;20080;-81
2021/06/06 07:16:05;;;;;;;2.85;1.98;;;;;;;25.51;46.07;93302.44;4989991;28;20046;-82
2021/06/06 07:18:32;;;;;;;4.95;2.47;;;;;;;25.74;47.30;93292.66;4989926;28;20050;-81
2021/06/06 07:21:01;;;;;;;3.95;1.80;;;;;;;25.94;46.50;93296.63;4989828;28;20046;-82
2021/06/06 07:23:30;;;;;;;3.50;2.10;;;;;;;26.24;46.03;93299.50;4990086;28;20058;-81
2021/06/06 07:25:58;;;;;;;2.83;2.53;;;;;;;26.31;45.77;93295.66;4990057;28;20050;-81
2021/06/06 07:28:26;;;;;;;3.45;2.35;;;;;;;26.25;45.46;93295.03;4989864;28;20042;-81
2021/06/06 07:30:56;;;;;;;3.95;2.22;;;;;;;26.25;45.22;93301.06;4990074;28;20044;-81
2021/06/06 07:33:28;;;;;;;4.55;2.13;;;;;;;26.57;44.38;93295.72;4989570;28;20054;-82
2021/06/06 07:35:56;;;;;;;3.72;2.72;;;;;;;26.63;43.37;93291.06;4988748;28;20050;-82
2021/06/06 07:38:24;;;;;;;3.20;1.85;;;;;;;26.84;44.86;93293.06;4988441;28;20081;-82
2021/06/06 07:40:52;;;;;;;4.15;2.08;;;;;;;27.19;43.96;93299.13;4990071;28;20087;-82
2021/06/06 07:43:19;;;;;;;3.22;2.20;;;;;;;27.37;42.28;93300.94;4989598;28;20053;-81
2021/06/06 07:45:45;;;;;;;2.58;1.73;;;;;;;27.21;41.47;93283.75;4989671;28;20521;-81
2021/06/06 07:48:13;;;;;;;3.60;2.80;;;;;;;26.71;41.85;93308.75;4989930;28;20101;-82
2021/06/06 07:50:42;;;;;;;6.03;3.22;;;;;;;26.69;44.12;93300.34;4989955;28;20094;-82
2021/06/06 07:53:08;;;;;;;3.65;2.20;;;;;;;26.51;44.11;93299.56;4989641;28;20494;-82
2021/06/06 07:55:35;;;;;;;4.88;2.50;;;;;;;26.15;44.23;93291.56;4989525;28;20046;-82
2021/06/06 07:58:03;;;;;;;3.75;2.53;;;;;;;26.13;44.54;93295.56;4989692;28;20050;-83
2021/06/06 08:00:33;;;;;;;16.95;3.45;;;;;;;26.05;45.13;93304.25;4989876;28;20038;-82
2021/06/06 08:03:00;;;;;;;3.60;2.72;;;;;;;26.23;43.88;93310.31;4989628;28;20070;-83
2021/06/06 08:05:28;;;;;;;3.00;1.67;;;;;;;25.74;43.44;93308.47;4989577;28;20061;-83
2021/06/06 08:07:55;;;;;;;4.53;2.53;;;;;;;25.75;44.66;93312.63;4989199;28;20054;-82
2021/06/06 08:10:23;;;;;;;3.50;1.98;;;;;;;25.38;42.66;93314.56;4991506;28;20057;-83
2021/06/06 08:12:50;;;;;;;4.00;2.47;;;;;;;25.06;44.42;93311.88;4993159;28;20393;-82
2021/06/06 08:15:18;;;;;;;2.72;1.80;;;;;;;24.73;45.22;93297.09;4991654;28;20038;-82
2021/06/06 08:17:45;;;;;;;2.30;1.73;;;;;;;24.57;44.08;93306.38;4993199;28;20416;-82
2021/06/06 08:20:15;;;;;;;3.90;2.15;;;;;;;24.60;44.07;93290.81;4993128;28;20053;-82
2021/06/06 08:22:42;;;;;;;3.53;2.28;;;;;;;25.37;45.67;93295.41;4992916;28;20057;-82
2021/06/06 08:25:11;;;;;;;6.00;2.33;;;;;;;25.96;44.44;93302.34;4992953;28;20394;-82
2021/06/06 08:27:38;;;;;;;3.65;2.60;;;;;;;26.29;43.67;93295.97;4991704;28;20045;-82
2021/06/06 08:30:07;;;;;;;3.47;2.20;;;;;;;26.10;42.03;93288.31;4988722;28;20049;-82
2021/06/06 08:32:33;;;;;;;3.40;2.15;;;;;;;25.67;43.18;93295.72;4993019;28;20051;-83
2021/06/06 08:34:59;;;;;;;4.43;2.30;;;;;;;26.10;43.86;93293.56;4992762;28;20046;-82
2021/06/06 08:37:26;;;;;;;3.78;2.50;;;;;;;26.66;43.94;93291.19;4992775;28;20367;-83
2021/06/06 08:39:53;;;;;;;4.80;2.63;;;;;;;27.06;43.08;93285.03;4992568;28;20043;-83
2021/06/06 08:42:23;;;;;;;3.72;2.00;;;;;;;26.80;41.89;93291.06;4992740;28;20097;-82
2021/06/06 08:45:03;;;;;;;3.67;2.00;;;;;;;26.18;41.93;93289.38;4992462;28;20042;-82
2021/06/06 08:47:31;;;;;;;5.10;2.30;;;;;;;25.73;42.22;93289.25;4992398;28;20086;-82
2021/06/06 08:50:02;;;;;;;3.85;2.03;;;;;;;25.82;44.25;93285.91;4992735;28;20049;-84
2021/06/06 08:52:41;;;;;;;4.35;2.08;;;;;;;26.39;41.68;93276.47;4992377;28;20054;-83
2021/06/06 08:55:19;;;;;;;2.80;1.90;;;;;;;26.47;41.91;93264.41;4992746;28;20046;-82
2021/06/06 08:57:48;;;;;;;2.90;2.20;;;;;;;26.41;42.24;93271.66;4992535;28;20050;-83
2021/06/06 09:00:20;;;;;;;3.17;2.35;;;;;;;26.31;42.98;93270.09;4992657;28;20058;-83
2021/06/06 09:02:49;;;;;;;3.00;2.00;;;;;;;25.14;43.84;93279.66;4992332;28;20053;-83
2021/06/06 09:05:25;;;;;;;3.45;2.50;;;;;;;25.92;43.22;93280.34;4992360;28;20053;-82
2021/06/06 09:07:53;;;;;;;3.25;2.30;;;;;;;26.20;44.13;93280.09;4992339;28;20046;-83
2021/06/06 09:10:26;;;;;;;3.25;2.00;;;;;;;26.71;41.86;93263.16;4992277;28;20097;-83
2021/06/06 09:12:52;;;;;;;3.40;2.08;;;;;;;25.89;42.47;93271.19;4992291;28;20061;-82
2021/06/06 09:15:21;;;;;;;5.55;2.38;;;;;;;25.96;43.77;93273.38;4990730;28;20066;-83
2021/06/06 09:17:53;;;;;;;4.57;2.25;;;;;;;26.12;43.01;93270.34;4991812;28;20451;-82
2021/06/06 09:20:32;;;;;;;3.65;2.05;;;;;;;25.55;43.27;93264.72;4991965;28;20402;-82
2021/06/06 09:23:11;;;;;;;3.83;2.67;;;;;;;25.61;45.82;93262.75;4991656;28;20053;-82
2021/06/06 09:25:40;;;;;;;3.33;2.58;;;;;;;26.27;43.96;93242.84;4991668;28;20053;-82
2021/06/06 09:28:09;;;;;;;3.08;2.35;;;;;;;26.80;40.73;93258.66;4991900;28;20045;-83
2021/06/06 09:30:37;;;;;;;4.68;2.47;;;;;;;27.41;42.42;93249.13;4991634;28;20136;-82
2021/06/06 09:33:08;;;;;;;3.67;2.53;;;;;;;27.92;40.07;93246.63;4988795;28;20050;-82
2021/06/06 09:35:38;;;;;;;3.78;2.22;;;;;;;28.05;40.30;93252.75;4989669;28;20046;-83
2021/06/06 09:38:14;;;;;;;3.75;2.38;;;;;;;28.31;37.99;93227.34;4990372;28;20054;-83
2021/06/06 09:40:46;;;;;;;4.95;2.42;;;;;;;28.78;37.85;93237.69;4991455;28;20038;-83
2021/06/06 09:43:25;;;;;;;4.32;3.03;;;;;;;28.78;38.49;93231.63;4991547;28;20781;-82
2021/06/06 09:45:52;;;;;;;3.97;2.55;;;;;;;28.86;36.81;93235.28;4991233;28;20053;-82
2021/06/06 09:48:26;;;;;;;4.68;2.50;;;;;;;28.60;38.23;93238.94;4991461;28;20474;-83
2021/06/06 09:50:55;;;;;;;3.13;2.60;;;;;;;28.92;38.37;93244.59;4991762;28;20058;-82
2021/06/06 09:53:24;;;;;;;4.68;2.78;;;;;;;28.50;35.88;93232.16;4991130;28;20046;-83
2021/06/06 09:56:04;;;;;;;4.43;3.03;;;;;;;29.10;37.29;93239.16;4991381;28;20042;-83
2021/06/06 09:58:33;;;;;;;3.75;2.50;;;;;;;28.84;34.66;93221.63;4991112;28;20054;-83
2021/06/06 10:01:06;;;;;;;3.90;2.53;;;;;;;29.25;35.00;93221.88;4990828;28;20038;-83
2021/06/06 10:03:36;;;;;;;3.83;2.63;;;;;;;29.63;34.83;93218.22;4991165;28;20050;-82
2021/06/06 10:06:15;;;;;;;3.95;2.42;;;;;;;29.90;36.17;93216.00;4990867;28;20054;-82
2021/06/06 10:08:42;;;;;;;3.88;2.38;;;;;;;30.04;35.23;93209.59;4983754;28;20050;-81
2021/06/06 10:11:13;;;;;;;5.03;2.25;;;;;;;30.24;34.24;93174.28;4990984;28;20112;-82
2021/06/06 10:13:44;;;;;;;4.38;2.65;;;;;;;30.71;34.70;93203.16;4991065;28;20050;-83
2021/06/06 10:16:14;;;;;;;3.78;2.50;;;;;;;30.86;33.60;93189.19;4989334;28;20046;-82
2021/06/06 10:18:45;;;;;;;3.97;2.55;;;;;;;30.95;34.33;93196.97;4990418;28;20043;-82
2021/06/06 10:21:16;;;;;;;3.67;2.63;;;;;;;30.53;34.08;93195.47;4990528;28;20053;-82
2021/06/06 10:23:45;;;;;;;3.05;2.38;;;;;;;30.43;34.20;93196.72;4990957;28;20262;-83
2021/06/06 10:26:16;;;;;;;4.70;2.38;;;;;;;30.30;34.68;93201.28;4990849;28;20386;-83
2021/06/06 10:28:48;;;;;;;5.55;2.33;;;;;;;30.38;34.10;93189.78;4990804;28;20046;-82
2021/06/06 10:31:24;;;;;;;4.45;2.70;;;;;;;30.57;32.98;93183.09;4990483;28;20073;-82
2021/06/06 10:33:54;;;;;;;4.30;2.90;;;;;;;31.03;33.30;93184.69;4990247;28;20043;-83
2021/06/06 10:36:23;;;;;;;4.47;2.67;;;;;;;31.40;32.55;93181.06;4990311;28;20093;-83
2021/06/06 10:38:49;;;;;;;5.38;2.22;;;;;;;31.32;33.30;93166.84;4990298;28;20047;-83
2021/06/06 10:41:23;;;;;;;3.47;2.20;;;;;;;30.25;32.33;93165.22;4990415;28;20050;-84
2021/06/06 10:43:55;;;;;;;3.95;2.35;;;;;;;29.97;32.29;93176.50;4990606;28;20050;-84
2021/06/06 10:46:26;;;;;;;2.75;2.17;;;;;;;30.10;33.83;93155.31;4990025;28;20042;-83
2021/06/06 10:49:00;;;;;;;4.90;2.60;;;;;;;30.33;32.49;93179.44;4990179;28;20045;-85
2021/06/06 10:51:33;;;;;;;2.90;2.13;;;;;;;29.74;33.34;93162.94;4987473;28;20394;-84
2021/06/06 10:54:03;;;;;;;3.05;2.28;;;;;;;29.18;34.45;93172.16;4985743;28;20046;-83
2021/06/06 10:56:42;;;;;;;2.97;2.53;;;;;;;29.22;34.65;93162.47;4990104;28;20490;-83
2021/06/06 10:59:09;;;;;;;2.97;1.95;;;;;;;28.11;37.11;93167.00;4990087;28;20446;-82
2021/06/06 11:01:50;;;;;;;3.90;2.55;;;;;;;27.81;36.46;93161.75;4989829;28;20051;-82
2021/06/06 11:04:19;;;;;;;3.97;2.72;;;;;;;27.94;37.29;93151.25;4989981;28;20170;-83
2021/06/06 11:06:48;;;;;;;3.13;2.28;;;;;;;28.33;36.62;93149.28;4990177;28;20050;-81
2021/06/06 11:09:26;;;;;;;4.07;2.42;;;;;;;28.86;35.57;93159.41;4990042;28;20048;-84
2021/06/06 11:12:01;;;;;;;3.83;2.58;;;;;;;29.11;35.18;93153.44;4986073;28;20050;-83
2021/06/06 11:14:41;;;;;;;3.78;2.15;;;;;;;29.20;35.25;93151.44;4986356;28;20050;-82
2021/06/06 11:17:14;;;;;;;3.85;2.58;;;;;;;29.23;35.79;93144.72;4989725;28;20050;-82
2021/06/06 11:19:41;;;;;;;4.88;2.88;;;;;;;29.73;33.31;93145.53;4989914;28;20053;-82
2021/06/06 11:22:27;;;;;;;5.82;3.25;;;;;;;30.03;34.13;93141.84;4989963;28;20434;-82
2021/06/06 11:24:56;;;;;;;3.22;2.40;;;;;;;30.13;33.77;93131.56;4987752;28;20538;-80
2021/06/06 11:27:30;;;;;;;3.95;2.10;;;;;;;30.64;31.34;93126.88;4989633;28;20046;-82
2021/06/06 11:30:10;;;;;;;3.50;2.33;;;;;;;30.23;31.70;93098.53;4970760;28;20151;-82
2021/06/06 11:32:55;;;;;;;3.05;1.73;;;;;;;30.29;31.89;93124.78;4962588;28;20109;-82
2021/06/06 11:35:28;;;;;;;3.08;2.30;;;;;;;30.61;32.06;93148.72;4970550;28;20046;-82
2021/06/06 11:37:57;;;;;;;3.20;1.88;;;;;;;30.51;29.77;93118.94;4970162;28;20479;-82
2021/06/06 11:40:30;;;;;;;2.85;2.00;;;;;;;28.83;32.74;93130.22;4970382;28;20043;-83
2021/06/06 11:43:02;;;;;;;2.88;1.83;;;;;;;27.68;33.72;93131.88;4970123;28;20047;-82
2021/06/06 11:45:36;;;;;;;4.28;1.90;;;;;;;27.40;37.81;93128.91;4972342;28;20478;-83